Time;durP1;ratioP1;P1;durP2;ratioP2;P2;SDS_P1;SDS_P2;PMS_P1;PMS_P2;Temp;Humidity;BMP_temperature;BMP_pressure;BME280_temperature;BME280_humidity;BME280_pressure;Samples;Min_cycle;Max_cycle;Signal;HPM_P1;HPM_P2
2023/09/21 00:00:45;;;;;;;5.57;2.53;;;11.80;99.90;;;;;;5052588;28;20595;-69
2023/09/21 00:03:12;;;;;;;3.60;2.20;;;11.70;99.90;;;;;;5052310;28;20206;-68
2023/09/21 00:05:39;;;;;;;4.20;2.33;;;11.70;99.90;;;;;;5052453;28;20260;-69
2023/09/21 00:08:06;;;;;;;5.40;2.53;;;11.70;99.90;;;;;;5051180;28;20179;-68
2023/09/21 00:10:32;;;;;;;4.33;2.30;;;11.80;99.90;;;;;;5052410;28;20175;-68
2023/09/21 00:12:59;;;;;;;4.60;2.13;;;11.70;99.90;;;;;;5052091;28;20763;-68
2023/09/21 00:15:29;;;;;;;4.57;2.30;;;11.70;99.90;;;;;;5047632;28;20215;-68
2023/09/21 00:17:56;;;;;;;4.33;2.30;;;11.60;99.90;;;;;;5048028;28;20286;-69
2023/09/21 00:20:42;;;;;;;12.70;2.90;;;11.60;99.90;;;;;;5052269;28;20190;-68
2023/09/21 00:23:11;;;;;;;11.47;2.70;;;11.60;99.90;;;;;;5051841;28;20650;-68
2023/09/21 00:25:38;;;;;;;7.50;2.55;;;11.50;99.90;;;;;;5051073;28;20899;-69
2023/09/21 00:28:07;;;;;;;4.30;2.17;;;11.50;99.90;;;;;;5050844;28;20195;-68
2023/09/21 00:30:35;;;;;;;4.23;1.80;;;11.50;99.90;;;;;;5052012;28;20233;-68
2023/09/21 00:33:02;;;;;;;5.43;2.30;;;11.40;99.90;;;;;;5051600;28;20222;-69
2023/09/21 00:35:28;;;;;;;7.43;2.03;;;11.50;99.90;;;;;;5051937;28;20211;-68
2023/09/21 00:37:56;;;;;;;3.20;2.00;;;11.40;99.90;;;;;;5050375;28;20187;-69
2023/09/21 00:40:22;;;;;;;9.07;2.30;;;11.40;99.90;;;;;;5051910;28;20231;-69
2023/09/21 00:42:48;;;;;;;4.90;2.60;;;11.40;99.90;;;;;;5051588;28;20205;-68
2023/09/21 00:45:18;;;;;;;3.73;2.30;;;11.30;99.90;;;;;;5051572;28;20237;-68
2023/09/21 00:47:50;;;;;;;2.60;1.80;;;11.30;99.90;;;;;;5051729;28;20233;-68
2023/09/21 00:50:20;;;;;;;6.33;1.93;;;11.30;99.90;;;;;;5042876;28;20270;-68
2023/09/21 00:52:47;;;;;;;8.57;2.57;;;11.20;99.90;;;;;;5051560;28;20670;-68
2023/09/21 00:55:16;;;;;;;6.80;2.27;;;11.20;99.90;;;;;;5051202;28;20219;-68
2023/09/21 00:57:43;;;;;;;4.23;2.13;;;11.20;99.90;;;;;;5042903;28;20670;-68
2023/09/21 01:00:13;;;;;;;4.87;2.37;;;11.20;99.90;;;;;;5050459;28;20210;-68
2023/09/21 01:02:46;;;;;;;5.43;2.20;;;11.20;99.90;;;;;;5051371;28;20179;-68
2023/09/21 01:05:13;;;;;;;4.90;2.50;;;11.20;99.90;;;;;;5051074;28;20209;-68
2023/09/21 01:07:39;;;;;;;9.37;2.10;;;11.10;99.90;;;;;;5051036;28;20195;-68
2023/09/21 01:10:08;;;;;;;6.00;2.13;;;11.10;99.90;;;;;;5049329;28;20658;-68
2023/09/21 01:12:35;;;;;;;7.20;2.40;;;11.10;99.90;;;;;;5051020;28;20187;-68
2023/09/21 01:15:05;;;;;;;7.57;2.77;;;11.00;99.90;;;;;;5050780;28;20222;-68
2023/09/21 01:17:31;;;;;;;8.17;2.80;;;11.00;99.90;;;;;;5051080;28;20187;-68
2023/09/21 01:19:57;;;;;;;3.53;2.30;;;11.00;99.90;;;;;;5050212;28;20185;-68
2023/09/21 01:22:25;;;;;;;5.77;2.47;;;11.00;99.90;;;;;;5050955;28;20183;-68
2023/09/21 01:24:51;;;;;;;3.70;2.63;;;11.00;99.90;;;;;;5050701;28;20190;-68
2023/09/21 01:27:17;;;;;;;3.70;2.23;;;10.90;99.90;;;;;;5042271;28;20179;-68
2023/09/21 01:29:44;;;;;;;10.13;2.67;;;11.00;99.90;;;;;;5050038;28;20187;-68
2023/09/21 01:32:09;;;;;;;5.03;2.60;;;10.90;99.90;;;;;;5066310;28;20648;-68
2023/09/21 01:34:35;;;;;;;3.73;2.33;;;10.90;99.90;;;;;;5044784;28;20239;-68
2023/09/21 01:37:01;;;;;;;4.73;2.60;;;10.90;99.90;;;;;;5048271;28;20222;-68
2023/09/21 01:39:27;;;;;;;5.03;2.40;;;10.90;99.90;;;;;;5049589;28;20183;-68
2023/09/21 01:41:53;;;;;;;6.33;2.87;;;10.90;99.90;;;;;;5050477;28;20187;-68
2023/09/21 01:44:22;;;;;;;7.77;3.37;;;10.90;99.90;;;;;;5050465;28;20178;-68
2023/09/21 01:46:49;;;;;;;9.73;3.17;;;10.90;99.90;;;;;;5042006;28;20200;-68
2023/09/21 01:49:16;;;;;;;6.47;2.33;;;10.90;99.90;;;;;;5048966;28;20183;-68
2023/09/21 01:51:41;;;;;;;4.60;2.33;;;10.90;99.90;;;;;;5050502;28;20183;-68
2023/09/21 01:54:07;;;;;;;4.30;2.37;;;10.80;99.90;;;;;;5049960;28;20252;-68
2023/09/21 01:56:34;;;;;;;5.00;2.70;;;10.80;99.90;;;;;;5050502;28;20281;-68
2023/09/21 01:59:00;;;;;;;5.30;2.30;;;10.70;99.90;;;;;;5041042;28;20187;-68
2023/09/21 02:01:26;;;;;;;6.23;2.70;;;10.70;99.90;;;;;;5042048;28;20179;-68
2023/09/21 02:03:52;;;;;;;5.77;2.53;;;10.80;99.90;;;;;;5050152;28;20187;-68
2023/09/21 02:06:17;;;;;;;4.00;2.00;;;10.60;99.90;;;;;;5050101;28;20203;-68
2023/09/21 02:08:44;;;;;;;4.90;2.43;;;10.60;99.90;;;;;;5049243;28;20195;-68
2023/09/21 02:11:09;;;;;;;8.90;2.20;;;10.60;99.90;;;;;;5050211;28;20692;-68
2023/09/21 02:13:35;;;;;;;3.40;2.13;;;10.60;99.90;;;;;;5050014;28;20246;-68
2023/09/21 02:16:00;;;;;;;5.57;2.43;;;10.60;99.90;;;;;;5041661;28;20210;-68
2023/09/21 02:18:27;;;;;;;6.23;2.23;;;10.60;99.90;;;;;;5048980;28;20198;-68
2023/09/21 02:20:55;;;;;;;5.53;2.33;;;10.60;99.90;;;;;;5050107;28;20186;-68
2023/09/21 02:23:21;;;;;;;4.50;2.10;;;10.50;99.90;;;;;;5049717;28;20670;-68
2023/09/21 02:25:46;;;;;;;4.40;2.70;;;10.60;99.90;;;;;;5041700;28;20238;-68
2023/09/21 02:28:12;;;;;;;9.07;2.97;;;10.50;99.90;;;;;;5039641;28;20222;-68
2023/09/21 02:30:39;;;;;;;5.23;2.43;;;10.50;99.90;;;;;;5050045;28;20186;-68
2023/09/21 02:33:06;;;;;;;6.60;2.80;;;10.50;99.90;;;;;;5041406;28;20195;-68
2023/09/21 02:35:34;;;;;;;7.33;2.83;;;10.50;99.90;;;;;;5049648;28;20214;-68
2023/09/21 02:38:00;;;;;;;6.37;2.93;;;10.60;99.90;;;;;;5048802;28;20194;-68
2023/09/21 02:40:26;;;;;;;7.23;3.03;;;10.50;99.90;;;;;;5049925;28;20183;-68
2023/09/21 02:42:56;;;;;;;5.47;2.90;;;10.60;99.90;;;;;;5049729;28;20190;-68
2023/09/21 02:45:29;;;;;;;5.80;3.00;;;10.60;99.90;;;;;;5034359;28;20227;-68
2023/09/21 02:48:00;;;;;;;5.77;2.77;;;10.60;99.90;;;;;;5048888;28;20191;-68
2023/09/21 02:50:27;;;;;;;6.20;3.60;;;10.60;99.90;;;;;;5049549;28;20207;-68
2023/09/21 02:52:56;;;;;;;6.57;2.63;;;10.60;99.90;;;;;;5049400;28;20193;-68
2023/09/21 02:55:27;;;;;;;5.17;3.23;;;10.60;99.90;;;;;;5034276;28;20203;-68
2023/09/21 02:57:57;;;;;;;9.00;2.60;;;10.60;99.90;;;;;;5048870;28;20183;-68
2023/09/21 03:00:27;;;;;;;6.43;2.67;;;10.60;99.90;;;;;;5049779;28;20647;-68
2023/09/21 03:03:00;;;;;;;6.00;2.80;;;10.60;99.90;;;;;;5049591;28;20190;-68
2023/09/21 03:05:27;;;;;;;8.07;3.57;;;10.60;99.90;;;;;;5049651;28;20697;-68
2023/09/21 03:07:54;;;;;;;6.63;3.00;;;10.70;99.90;;;;;;5040584;28;20301;-68
2023/09/21 03:10:21;;;;;;;5.93;2.67;;;10.70;99.90;;;;;;5033559;28;20263;-68
2023/09/21 03:12:51;;;;;;;7.50;3.20;;;10.70;99.90;;;;;;5041977;28;20188;-68
2023/09/21 03:15:22;;;;;;;5.70;2.97;;;10.70;99.90;;;;;;5048927;28;20206;-68
2023/09/21 03:17:52;;;;;;;7.27;2.93;;;10.70;99.90;;;;;;5048774;28;20195;-68
2023/09/21 03:20:37;;;;;;;8.97;3.83;;;10.70;99.90;;;;;;5049192;28;20221;-68
2023/09/21 03:23:05;;;;;;;10.03;3.47;;;10.70;99.90;;;;;;5048039;28;20671;-68
2023/09/21 03:25:40;;;;;;;6.70;3.30;;;10.70;99.90;;;;;;5042828;28;20202;-68
2023/09/21 03:28:12;;;;;;;6.93;3.70;;;10.80;99.90;;;;;;5048427;28;20580;-68
2023/09/21 03:30:46;;;;;;;11.37;3.63;;;10.80;99.90;;;;;;5049319;28;20708;-68
2023/09/21 03:33:12;;;;;;;7.47;3.57;;;10.80;99.90;;;;;;5049483;28;20527;-68
2023/09/21 03:35:38;;;;;;;10.73;3.90;;;10.70;99.90;;;;;;5052967;28;20218;-69
2023/09/21 03:38:18;;;;;;;7.93;3.50;;;10.80;99.90;;;;;;5052064;28;20215;-68
2023/09/21 03:40:44;;;;;;;11.70;4.67;;;10.80;99.90;;;;;;5046029;28;20184;-68
2023/09/21 03:43:10;;;;;;;16.30;4.30;;;10.80;99.90;;;;;;5051326;28;20562;-68
2023/09/21 03:45:38;;;;;;;12.70;4.40;;;10.80;99.90;;;;;;5053007;28;20209;-68
2023/09/21 03:48:06;;;;;;;8.13;4.10;;;10.80;99.90;;;;;;5050428;28;20190;-68
2023/09/21 03:50:32;;;;;;;9.37;3.90;;;10.80;99.90;;;;;;5046116;28;20674;-68
2023/09/21 03:52:59;;;;;;;10.23;3.90;;;10.90;99.90;;;;;;5043767;28;20590;-68
2023/09/21 03:55:25;;;;;;;9.47;3.50;;;10.80;99.90;;;;;;5040951;28;20207;-68
2023/09/21 03:57:50;;;;;;;5.10;3.40;;;10.80;99.90;;;;;;5047870;28;20191;-68
2023/09/21 04:00:36;;;;;;;8.40;3.90;;;10.80;99.90;;;;;;5051375;28;20191;-68
2023/09/21 04:03:08;;;;;;;8.60;3.53;;;10.80;99.90;;;;;;5044119;28;20191;-69
2023/09/21 04:05:35;;;;;;;10.20;3.30;;;10.80;99.90;;;;;;5052467;28;20207;-68
2023/09/21 04:08:04;;;;;;;12.20;3.60;;;10.70;99.90;;;;;;5051209;28;20191;-68
2023/09/21 04:10:30;;;;;;;6.07;3.33;;;10.70;99.90;;;;;;5052517;28;20194;-68
2023/09/21 04:12:56;;;;;;;6.87;3.50;;;10.70;99.90;;;;;;5051976;28;20184;-68
2023/09/21 04:15:27;;;;;;;6.37;3.73;;;10.70;99.90;;;;;;5043956;28;20226;-69
2023/09/21 04:17:53;;;;;;;6.77;3.50;;;10.80;99.90;;;;;;5051240;28;20201;-68
2023/09/21 04:20:21;;;;;;;7.57;3.47;;;10.80;99.90;;;;;;5052123;28;20213;-68
2023/09/21 04:22:50;;;;;;;13.47;3.83;;;10.80;99.90;;;;;;5052134;28;20186;-68
2023/09/21 04:25:16;;;;;;;6.13;3.53;;;10.80;99.90;;;;;;5051909;28;20246;-68
2023/09/21 04:27:44;;;;;;;6.47;3.50;;;10.80;99.90;;;;;;5041625;28;20686;-68
2023/09/21 04:30:14;;;;;;;9.50;3.77;;;10.80;99.90;;;;;;5047926;28;20183;-68
2023/09/21 04:32:49;;;;;;;5.30;3.20;;;10.90;99.90;;;;;;5046398;28;20191;-68
2023/09/21 04:35:17;;;;;;;6.70;3.17;;;10.90;99.90;;;;;;5051565;28;20806;-68
2023/09/21 04:37:44;;;;;;;4.90;3.03;;;10.90;99.90;;;;;;5051780;28;20210;-68
2023/09/21 04:40:11;;;;;;;6.37;2.90;;;11.00;99.90;;;;;;5051376;28;20183;-68
2023/09/21 04:42:41;;;;;;;7.80;3.47;;;10.90;99.90;;;;;;5045868;28;20186;-69
2023/09/21 04:45:09;;;;;;;5.17;3.10;;;11.00;99.90;;;;;;5031395;28;20212;-68
2023/09/21 04:47:44;;;;;;;6.53;2.83;;;11.00;99.90;;;;;;5039837;28;20194;-69
2023/09/21 04:50:11;;;;;;;6.27;2.70;;;10.90;99.90;;;;;;5031548;28;20274;-68
2023/09/21 04:52:37;;;;;;;9.10;2.60;;;10.90;99.90;;;;;;5039871;28;20184;-69
2023/09/21 04:55:08;;;;;;;5.27;3.20;;;10.90;99.90;;;;;;5031739;28;20223;-68
2023/09/21 04:57:34;;;;;;;3.97;2.40;;;10.90;99.90;;;;;;5037100;28;20187;-69
2023/09/21 05:00:04;;;;;;;4.90;2.00;;;10.80;99.90;;;;;;5031780;28;20218;-69
2023/09/21 05:02:30;;;;;;;4.40;2.30;;;10.90;99.90;;;;;;5038636;28;20188;-68
2023/09/21 05:04:55;;;;;;;4.57;1.70;;;10.90;99.90;;;;;;5031518;28;20534;-69
2023/09/21 05:07:21;;;;;;;4.20;2.47;;;10.80;99.90;;;;;;5039485;28;20567;-69
2023/09/21 05:09:47;;;;;;;5.57;2.57;;;10.80;99.90;;;;;;5030687;28;20198;-69
2023/09/21 05:12:13;;;;;;;5.20;2.80;;;10.80;99.90;;;;;;5031407;28;20191;-68
2023/09/21 05:14:40;;;;;;;5.00;2.87;;;10.80;99.90;;;;;;5030840;28;20239;-69
2023/09/21 05:17:06;;;;;;;5.87;3.10;;;10.80;99.90;;;;;;5031138;28;20546;-69
2023/09/21 05:19:33;;;;;;;5.90;3.33;;;10.80;99.90;;;;;;5035249;28;20208;-69
2023/09/21 05:21:59;;;;;;;11.23;5.17;;;10.80;99.90;;;;;;5033844;28;20267;-69
2023/09/21 05:24:25;;;;;;;11.03;4.00;;;10.80;99.90;;;;;;5042106;28;20189;-69
2023/09/21 05:26:52;;;;;;;7.97;3.37;;;10.90;99.90;;;;;;5042178;28;20207;-69
2023/09/21 05:29:19;;;;;;;6.00;3.30;;;10.80;99.90;;;;;;5037590;28;20183;-69
2023/09/21 05:31:45;;;;;;;6.53;3.60;;;10.80;99.90;;;;;;5037157;28;20222;-70
2023/09/21 05:34:11;;;;;;;9.93;3.43;;;10.80;99.90;;;;;;5039233;28;20231;-69
2023/09/21 05:36:36;;;;;;;5.57;3.30;;;10.80;99.90;;;;;;5036482;28;20612;-69
2023/09/21 05:39:04;;;;;;;7.80;3.20;;;10.80;99.90;;;;;;5031786;28;20187;-68
2023/09/21 05:41:31;;;;;;;5.10;3.30;;;10.80;99.90;;;;;;5043007;28;20657;-70
2023/09/21 05:43:57;;;;;;;13.07;3.50;;;10.80;99.90;;;;;;5032828;28;20186;-69
2023/09/21 05:46:22;;;;;;;5.70;3.00;;;10.80;99.90;;;;;;5041969;28;20733;-68
2023/09/21 05:48:48;;;;;;;4.07;2.37;;;10.90;99.90;;;;;;5040982;28;20179;-68
2023/09/21 05:51:14;;;;;;;5.10;2.60;;;10.90;99.90;;;;;;5041567;28;20559;-69
2023/09/21 05:53:40;;;;;;;7.33;2.93;;;10.90;99.90;;;;;;5041286;28;21015;-68
2023/09/21 05:56:05;;;;;;;4.60;2.53;;;10.90;99.90;;;;;;5047667;28;20285;-67
2023/09/21 05:58:31;;;;;;;4.57;2.57;;;10.90;99.90;;;;;;5029046;28;20603;-70
2023/09/21 06:00:59;;;;;;;5.57;2.83;;;11.00;99.90;;;;;;5037995;28;20705;-69
2023/09/21 06:03:26;;;;;;;4.23;2.80;;;11.00;99.90;;;;;;5037456;28;20206;-68
2023/09/21 06:05:52;;;;;;;6.87;2.73;;;11.10;99.90;;;;;;5029714;28;20731;-68
2023/09/21 06:08:19;;;;;;;8.40;3.63;;;11.20;99.90;;;;;;5031778;28;20187;-69
2023/09/21 06:10:45;;;;;;;5.53;3.07;;;11.30;99.90;;;;;;5035051;28;20192;-68
2023/09/21 06:13:12;;;;;;;9.90;3.53;;;11.30;99.90;;;;;;5037173;28;20187;-68
2023/09/21 06:15:47;;;;;;;5.63;2.87;;;11.40;99.90;;;;;;5043446;28;20694;-68
2023/09/21 06:18:17;;;;;;;7.07;3.30;;;11.40;99.90;;;;;;5038091;28;20199;-68
2023/09/21 06:20:46;;;;;;;7.33;3.40;;;11.50;99.90;;;;;;5037611;28;20706;-69
2023/09/21 06:23:11;;;;;;;10.23;5.07;;;11.50;99.90;;;;;;5031481;28;20194;-68
2023/09/21 06:25:37;;;;;;;7.07;2.80;;;11.50;99.90;;;;;;5041200;28;20211;-68
2023/09/21 06:28:03;;;;;;;5.77;2.97;;;11.40;99.90;;;;;;5048458;28;20222;-69
2023/09/21 06:30:29;;;;;;;6.20;2.40;;;11.40;99.90;;;;;;5040898;28;20257;-69
2023/09/21 06:32:55;;;;;;;4.63;2.70;;;11.30;99.90;;;;;;5041211;28;20613;-69
2023/09/21 06:35:23;;;;;;;12.60;3.27;;;11.40;99.90;;;;;;5032575;28;20223;-69
2023/09/21 06:37:51;;;;;;;19.37;4.03;;;11.50;99.90;;;;;;5040283;28;20217;-69
2023/09/21 06:40:17;;;;;;;17.10;4.27;;;11.80;99.90;;;;;;5045950;28;20184;-69
2023/09/21 06:42:42;;;;;;;21.47;4.20;;;12.20;99.90;;;;;;5035550;28;20210;-68
2023/09/21 06:45:08;;;;;;;10.00;3.27;;;12.50;99.90;;;;;;5030832;28;20242;-68
2023/09/21 06:47:34;;;;;;;11.40;3.13;;;12.80;99.90;;;;;;5042596;28;20233;-70
2023/09/21 06:49:59;;;;;;;8.27;3.30;;;13.20;99.90;;;;;;5040085;28;20199;-70
2023/09/21 06:52:25;;;;;;;8.10;3.33;;;13.50;99.90;;;;;;5037186;28;20257;-68
2023/09/21 06:54:52;;;;;;;10.03;3.23;;;13.80;99.90;;;;;;5027764;28;20849;-68
2023/09/21 06:57:23;;;;;;;9.97;3.30;;;13.90;99.90;;;;;;5044289;28;20309;-68
2023/09/21 06:59:49;;;;;;;8.90;3.47;;;14.20;99.90;;;;;;5023908;28;20194;-68
2023/09/21 07:02:14;;;;;;;7.43;3.20;;;14.30;99.90;;;;;;5039789;28;20617;-68
2023/09/21 07:04:40;;;;;;;8.00;3.60;;;14.50;99.90;;;;;;5034615;28;20187;-68
2023/09/21 07:07:06;;;;;;;6.20;3.27;;;14.70;99.90;;;;;;5027504;28;20656;-68
2023/09/21 07:09:34;;;;;;;15.03;3.23;;;14.90;99.90;;;;;;5035343;28;20183;-69
2023/09/21 07:12:00;;;;;;;9.37;2.93;;;15.20;99.90;;;;;;5044044;28;20187;-69
2023/09/21 07:14:26;;;;;;;8.53;3.20;;;15.40;99.90;;;;;;5032769;28;20271;-68
2023/09/21 07:16:52;;;;;;;18.47;3.50;;;15.70;99.90;;;;;;5041210;28;20295;-70
2023/09/21 07:19:18;;;;;;;11.53;3.43;;;15.90;99.90;;;;;;5040098;28;20222;-68
2023/09/21 07:21:43;;;;;;;13.47;3.70;;;16.20;99.90;;;;;;5032705;28;20192;-68
2023/09/21 07:24:09;;;;;;;10.33;3.90;;;16.50;99.90;;;;;;5040927;28;20194;-68
2023/09/21 07:26:34;;;;;;;14.73;3.80;;;16.80;99.90;;;;;;5031428;28;20338;-68
2023/09/21 07:29:05;;;;;;;16.30;3.40;;;17.10;99.90;;;;;;5039984;28;20682;-69
2023/09/21 07:31:33;;;;;;;17.27;3.97;;;17.20;99.90;;;;;;5052739;28;20576;-72
2023/09/21 07:34:01;;;;;;;14.77;3.80;;;17.40;99.90;;;;;;5042931;28;20647;-73
2023/09/21 07:36:27;;;;;;;15.43;3.53;;;17.70;99.90;;;;;;5052426;28;20195;-71
2023/09/21 07:38:53;;;;;;;13.53;3.40;;;18.00;99.90;;;;;;5051414;28;20202;-73
2023/09/21 07:41:19;;;;;;;11.13;3.40;;;18.40;99.90;;;;;;5052308;28;20179;-71
2023/09/21 07:43:45;;;;;;;18.93;4.13;;;18.90;99.90;;;;;;5037362;28;20199;-71
2023/09/21 07:46:11;;;;;;;15.30;3.23;;;19.20;99.90;;;;;;5034108;28;20212;-72
2023/09/21 07:48:36;;;;;;;8.80;3.43;;;19.20;99.90;;;;;;5043125;28;20186;-74
2023/09/21 07:51:06;;;;;;;12.33;3.33;;;19.50;99.90;;;;;;5042941;28;20556;-69
2023/09/21 07:53:32;;;;;;;16.57;3.20;;;19.50;99.90;;;;;;5045113;28;20183;-70
2023/09/21 07:56:01;;;;;;;8.03;3.00;;;19.80;99.90;;;;;;5051742;28;20241;-71
2023/09/21 07:58:27;;;;;;;8.73;2.80;;;20.30;99.90;;;;;;5050852;28;20179;-70
2023/09/21 08:00:55;;;;;;;9.03;3.17;;;20.70;99.90;;;;;;5051946;28;20213;-70
2023/09/21 08:03:25;;;;;;;11.03;2.70;;;20.90;99.90;;;;;;5046975;28;20597;-71
2023/09/21 08:05:51;;;;;;;10.87;3.20;;;20.90;99.90;;;;;;5040708;28;20222;-71
2023/09/21 08:08:17;;;;;;;8.97;3.00;;;20.80;99.90;;;;;;5039022;28;20217;-70
2023/09/21 08:10:43;;;;;;;9.30;3.23;;;20.70;99.90;;;;;;5030697;28;20665;-70
2023/09/21 08:13:08;;;;;;;7.20;2.70;;;20.50;99.90;;;;;;5039692;28;20198;-70
2023/09/21 08:15:35;;;;;;;9.17;2.60;;;20.70;99.90;;;;;;5031615;28;20289;-70
2023/09/21 08:18:00;;;;;;;13.57;3.00;;;21.00;99.90;;;;;;5053275;28;20719;-70
2023/09/21 08:20:26;;;;;;;8.23;2.73;;;21.20;99.90;;;;;;5051184;28;20254;-69
2023/09/21 08:22:52;;;;;;;9.10;3.07;;;21.30;99.90;;;;;;5051504;28;20194;-69
2023/09/21 08:25:17;;;;;;;6.83;2.37;;;21.30;99.90;;;;;;5034949;28;20211;-70
2023/09/21 08:27:43;;;;;;;5.53;2.27;;;21.50;99.90;;;;;;5036600;28;20614;-70
2023/09/21 08:30:09;;;;;;;4.70;1.90;;;21.90;99.90;;;;;;5040373;28;20269;-69
2023/09/21 08:32:34;;;;;;;8.50;2.57;;;22.80;99.90;;;;;;5042977;28;20190;-69
2023/09/21 08:35:01;;;;;;;8.53;2.40;;;23.30;99.90;;;;;;5066243;28;20725;-69
2023/09/21 08:37:26;;;;;;;9.27;2.73;;;23.40;99.90;;;;;;5051174;28;20312;-69
2023/09/21 08:39:52;;;;;;;4.80;2.10;;;23.70;99.90;;;;;;5050406;28;20273;-70
2023/09/21 08:42:18;;;;;;;5.33;2.13;;;23.50;99.90;;;;;;5051041;28;20186;-70
2023/09/21 08:44:44;;;;;;;8.17;2.87;;;23.50;99.90;;;;;;5050818;28;20194;-71
2023/09/21 08:47:13;;;;;;;4.10;2.20;;;23.30;99.90;;;;;;5050868;28;20184;-70
2023/09/21 08:49:43;;;;;;;5.03;2.10;;;23.30;99.90;;;;;;5050176;28;20188;-69
2023/09/21 08:52:09;;;;;;;7.43;2.40;;;23.70;99.90;;;;;;5034437;28;20643;-70
2023/09/21 08:54:39;;;;;;;6.07;2.80;;;24.20;99.90;;;;;;5045312;28;20614;-69
2023/09/21 08:57:08;;;;;;;4.67;1.93;;;24.40;99.90;;;;;;5030537;28;20238;-70
2023/09/21 08:59:39;;;;;;;3.90;1.83;;;24.30;99.90;;;;;;5043254;28;20185;-70
2023/09/21 09:02:05;;;;;;;6.07;2.20;;;24.10;99.90;;;;;;5041068;28;20211;-69
2023/09/21 09:04:31;;;;;;;3.80;2.33;;;23.80;99.90;;;;;;5030590;28;20655;-69
2023/09/21 09:06:57;;;;;;;5.63;1.97;;;23.10;99.90;;;;;;5029378;28;20209;-69
2023/09/21 09:09:23;;;;;;;5.70;2.00;;;22.70;99.90;;;;;;5029635;28;20185;-70
2023/09/21 09:11:50;;;;;;;4.10;1.97;;;22.50;99.90;;;;;;5037943;28;20187;-69
2023/09/21 09:14:18;;;;;;;4.57;2.10;;;22.20;99.90;;;;;;5033940;28;20208;-69
2023/09/21 09:16:44;;;;;;;4.10;1.50;;;21.90;99.90;;;;;;5035145;28;20215;-69
2023/09/21 09:19:11;;;;;;;7.23;1.80;;;21.70;99.90;;;;;;5047578;28;20222;-69
2023/09/21 09:21:37;;;;;;;4.80;1.70;;;21.50;99.90;;;;;;5036983;28;20180;-69
2023/09/21 09:24:04;;;;;;;5.40;2.20;;;21.30;99.90;;;;;;5045699;28;20669;-69
2023/09/21 09:26:30;;;;;;;6.13;2.07;;;21.10;99.90;;;;;;5035034;28;20307;-69
2023/09/21 09:29:04;;;;;;;3.17;2.00;;;21.00;99.90;;;;;;5041440;28;20202;-69
2023/09/21 09:31:30;;;;;;;5.20;2.00;;;20.80;99.90;;;;;;5022128;28;20195;-69
2023/09/21 09:33:57;;;;;;;3.07;1.53;;;20.70;99.90;;;;;;5030446;28;20576;-70
2023/09/21 09:36:24;;;;;;;5.67;1.93;;;20.60;99.90;;;;;;5038301;28;20196;-70
2023/09/21 09:38:50;;;;;;;4.43;2.00;;;20.50;99.90;;;;;;5038183;28;20175;-70
2023/09/21 09:41:16;;;;;;;4.83;1.67;;;20.40;99.90;;;;;;5048808;28;20256;-69
2023/09/21 09:43:45;;;;;;;6.27;1.83;;;20.30;99.90;;;;;;5043971;28;20192;-69
2023/09/21 09:46:12;;;;;;;4.50;1.83;;;20.20;99.90;;;;;;5039942;28;20206;-69
2023/09/21 09:48:43;;;;;;;2.30;1.50;;;20.10;99.90;;;;;;5040990;28;20294;-69
2023/09/21 09:51:11;;;;;;;4.90;1.90;;;20.20;99.90;;;;;;5040151;28;20265;-69
2023/09/21 09:53:38;;;;;;;5.50;2.13;;;20.20;99.90;;;;;;5043297;28;20188;-69
2023/09/21 09:56:08;;;;;;;4.80;1.70;;;20.30;99.90;;;;;;5033191;28;20570;-69
2023/09/21 09:58:41;;;;;;;5.63;2.00;;;20.20;99.90;;;;;;5044130;28;20563;-69
2023/09/21 10:01:12;;;;;;;7.33;2.30;;;20.00;99.90;;;;;;5029661;28;20179;-68
2023/09/21 10:03:43;;;;;;;6.53;2.07;;;20.10;99.90;;;;;;5029730;28;20187;-68
2023/09/21 10:06:09;;;;;;;3.93;2.00;;;20.00;99.90;;;;;;5039217;28;20213;-69
2023/09/21 10:08:38;;;;;;;5.23;2.67;;;19.90;99.90;;;;;;5040385;28;20677;-70
2023/09/21 10:11:08;;;;;;;4.90;1.87;;;19.90;99.90;;;;;;5041031;28;20199;-70
2023/09/21 10:13:52;;;;;;;4.97;2.47;;;19.80;99.90;;;;;;5036534;28;20187;-69
2023/09/21 10:16:19;;;;;;;5.73;2.00;;;19.80;99.90;;;;;;5029351;28;20583;-69
2023/09/21 10:18:45;;;;;;;4.97;2.07;;;19.70;99.90;;;;;;5034948;28;20226;-69
2023/09/21 10:21:29;;;;;;;6.77;2.03;;;19.70;99.90;;;;;;5049510;28;20244;-69
2023/09/21 10:24:13;;;;;;;3.13;1.80;;;19.70;99.90;;;;;;5040073;28;20179;-69
2023/09/21 10:26:43;;;;;;;4.83;2.07;;;19.70;99.90;;;;;;5037534;28;20199;-69
2023/09/21 10:29:12;;;;;;;5.03;2.00;;;19.70;99.90;;;;;;5048528;28;20266;-69
2023/09/21 10:31:43;;;;;;;4.60;2.10;;;19.80;99.90;;;;;;5048094;28;20292;-69
2023/09/21 10:34:10;;;;;;;4.53;2.17;;;20.00;99.90;;;;;;5048738;28;20710;-69
2023/09/21 10:36:42;;;;;;;10.30;4.80;;;20.20;99.90;;;;;;5049298;28;20666;-69
2023/09/21 10:39:10;;;;;;;5.93;2.07;;;20.30;99.90;;;;;;5040032;28;20187;-69
2023/09/21 10:41:42;;;;;;;4.57;1.70;;;20.40;99.90;;;;;;5035982;28;20183;-70
2023/09/21 10:44:08;;;;;;;10.07;3.80;;;20.50;99.90;;;;;;5048330;28;20179;-69
2023/09/21 10:46:35;;;;;;;3.53;1.70;;;20.30;99.90;;;;;;5048502;28;20282;-69
2023/09/21 10:49:03;;;;;;;7.40;1.87;;;20.30;99.90;;;;;;5049003;28;20175;-69
2023/09/21 10:51:39;;;;;;;7.30;1.50;;;20.40;99.90;;;;;;5053277;28;20175;-69
2023/09/21 10:54:06;;;;;;;4.53;1.87;;;20.50;99.90;;;;;;5044444;28;20266;-69
2023/09/21 10:56:36;;;;;;;4.40;1.90;;;20.50;99.90;;;;;;5053185;28;20218;-70
2023/09/21 10:59:02;;;;;;;5.97;1.90;;;20.60;99.90;;;;;;5051808;28;20309;-69
2023/09/21 11:01:28;;;;;;;3.43;1.67;;;20.50;99.90;;;;;;5043817;28;20706;-68
2023/09/21 11:03:53;;;;;;;3.07;1.47;;;20.50;99.90;;;;;;5052344;28;20180;-69
2023/09/21 11:06:21;;;;;;;6.13;1.97;;;20.40;99.90;;;;;;5036095;28;20207;-70
2023/09/21 11:08:49;;;;;;;3.50;1.57;;;20.40;99.90;;;;;;5045676;28;20191;-70
2023/09/21 11:11:16;;;;;;;4.37;1.70;;;20.40;99.90;;;;;;5041163;28;20205;-70
2023/09/21 11:13:43;;;;;;;5.63;2.03;;;20.40;99.90;;;;;;5032766;28;20191;-69
2023/09/21 11:16:09;;;;;;;4.07;1.70;;;20.30;99.90;;;;;;5040795;28;20219;-70
2023/09/21 11:18:39;;;;;;;4.03;1.70;;;20.10;99.90;;;;;;5039439;28;20195;-70
2023/09/21 11:21:08;;;;;;;3.60;2.10;;;20.10;99.90;;;;;;5040960;28;20175;-70
2023/09/21 11:23:35;;;;;;;3.63;1.80;;;20.10;99.90;;;;;;5031430;28;20187;-70
2023/09/21 11:26:00;;;;;;;4.27;1.70;;;20.10;99.90;;;;;;5049170;28;20206;-70
2023/09/21 11:28:27;;;;;;;4.03;1.97;;;20.10;99.90;;;;;;5052357;28;20522;-70
2023/09/21 11:30:53;;;;;;;4.43;2.10;;;19.90;99.90;;;;;;5052621;28;20187;-70
2023/09/21 11:33:19;;;;;;;4.13;1.90;;;20.00;99.90;;;;;;5041453;28;20697;-70
2023/09/21 11:35:45;;;;;;;3.70;1.97;;;20.10;99.90;;;;;;5046722;28;20290;-69
2023/09/21 11:38:12;;;;;;;3.87;1.90;;;20.20;99.90;;;;;;5041867;28;20542;-70
2023/09/21 11:40:38;;;;;;;8.40;2.07;;;20.30;99.90;;;;;;5040670;28;20543;-70
2023/09/21 11:43:04;;;;;;;3.10;1.90;;;20.60;99.90;;;;;;5032544;28;20179;-69
2023/09/21 11:45:34;;;;;;;3.97;2.07;;;20.70;99.90;;;;;;5044057;28;20689;-70
2023/09/21 11:48:00;;;;;;;3.00;1.70;;;20.80;99.90;;;;;;5036158;28;20192;-69
2023/09/21 11:50:30;;;;;;;4.00;1.70;;;21.10;99.90;;;;;;5036787;28;20863;-69
2023/09/21 11:52:56;;;;;;;6.57;2.17;;;21.30;99.90;;;;;;5031782;28;20205;-69
2023/09/21 11:55:30;;;;;;;3.57;1.87;;;21.50;99.90;;;;;;5047932;28;20302;-69
2023/09/21 11:58:11;;;;;;;4.70;1.70;;;21.50;99.90;;;;;;5031344;28;20176;-69
2023/09/21 12:00:43;;;;;;;4.37;1.93;;;21.70;99.90;;;;;;5040269;28;20662;-69
2023/09/21 12:03:14;;;;;;;3.20;1.80;;;21.70;99.90;;;;;;5040533;28;20183;-69
2023/09/21 12:05:43;;;;;;;3.40;1.80;;;21.80;99.90;;;;;;5031813;28;20208;-69
2023/09/21 12:08:16;;;;;;;5.17;1.60;;;21.70;99.90;;;;;;5040754;28;20190;-69
2023/09/21 12:10:45;;;;;;;4.57;2.00;;;21.80;99.90;;;;;;5046237;28;20191;-69
2023/09/21 12:13:12;;;;;;;3.70;1.97;;;22.00;99.90;;;;;;5031475;28;20188;-69
2023/09/21 12:15:38;;;;;;;6.13;1.80;;;22.00;99.90;;;;;;5035131;28;20215;-70
2023/09/21 12:18:10;;;;;;;4.90;1.90;;;21.80;99.90;;;;;;5042043;28;20194;-70
2023/09/21 12:20:36;;;;;;;4.33;1.77;;;21.80;99.90;;;;;;5038721;28;20184;-69
2023/09/21 12:23:05;;;;;;;6.57;1.90;;;22.00;99.90;;;;;;5039530;28;20701;-70
2023/09/21 12:25:31;;;;;;;4.50;1.60;;;22.10;99.90;;;;;;5038914;28;20208;-70
2023/09/21 12:27:57;;;;;;;4.90;1.50;;;22.10;99.90;;;;;;5030813;28;20184;-69
2023/09/21 12:30:23;;;;;;;4.73;2.00;;;22.10;99.90;;;;;;5039692;28;20267;-70
2023/09/21 12:32:49;;;;;;;4.93;1.60;;;22.30;99.90;;;;;;5031381;28;20516;-70
2023/09/21 12:35:17;;;;;;;6.70;2.10;;;22.30;99.90;;;;;;5031513;28;20339;-70
2023/09/21 12:37:44;;;;;;;3.27;1.73;;;22.40;99.90;;;;;;5030937;28;20172;-70
2023/09/21 12:40:14;;;;;;;5.47;1.73;;;22.50;99.90;;;;;;5030697;28;20185;-70
2023/09/21 12:42:42;;;;;;;5.30;2.03;;;22.60;99.90;;;;;;5031331;28;20464;-70
2023/09/21 12:45:08;;;;;;;7.30;2.33;;;22.80;99.90;;;;;;5039264;28;20202;-70
2023/09/21 12:47:34;;;;;;;4.97;1.80;;;22.90;99.90;;;;;;5031002;28;20560;-70